Tiempo atmosférico en la estación meteorológica de Coria, Cáceres (313 m.)



Fecha
DESCASC
Temp. máxima en grados centígrados (hora)
DESCASC
Temp. mínima en grados centígrados (hora)
DESCASC
Temp. media en grados centígrados
DESCASC
Racha de viento máxima en m/sg (hora)
DESCASC
Velocidad máxima media en intervalos de 10 minutos(hora)
DESCASC
Precipitaciones diarias en mm
DESCASC
Precipitaciones de 00:00 a 06:00 en mm
DESCASC
Precipitaciones de 06:00 a 12:00 en mm
DESCASC
Precipitaciones de 12:00 a 18:00 en mm
DESCASC
Precipitaciones de 18:00 a 24:00 en mm
DESCASC
05-04-2020 16.7 (13:40) 12.3 (08:30) 14.5 -- (--) -- (--) 9.2 0 0 5.4 3.8
04-04-2020 19.2 (14:50) 8.7 (08:00) 14 -- (--) -- (--) 0 0 0 0 0
03-04-2020 20.7 (17:30) 6 (08:20) 13.4 7.78 (00:50) 4.17 (00:50) 0 0 0 0 0
02-04-2020 18.7 (18:30) 4.7 (00:00) 11.7 -- (--) -- (--) 0 0 0 0 0
01-04-2020 15.1 (17:00) 2.4 (00:00) 8.8 7.78 (16:20) 3.89 (18:40) 0 0 0 0 0
31-03-2020 11.4 (18:00) 3.7 (00:00) 7.5 -- (--) -- (--) 21.8 0.6 12 2.4 6.8
30-03-2020 12.6 (00:00) 5 (00:00) 8.8 -- (--) -- (--) 0 0 0 0 0
29-03-2020 20.7 (17:40) 5.4 (00:00) 13.1 6.39 (15:40) 3.33 (06:50) 0 0 0 0 0
28-03-2020 18 (18:20) 4.9 (00:00) 11.5 -- (--) -- (--) 0 0 0 0 0
27-03-2020 14.4 (14:20) 5.5 (00:00) 9.9 -- (--) -- (--) 0 0 0 0 0
26-03-2020 21.7 (18:00) 10.2 (00:00) 16 8.33 (13:00) 4.44 (14:40) 0 0 0 0 0
25-03-2020 21 (16:00) 8.6 (00:00) 14.8 10 (18:20) 6.94 (18:20) 0 0 0 0 0
24-03-2020 18.9 (16:30) 9.5 (00:00) 14.2 18.06 (11:50) 10 (14:30) 0 0 0 0 0
23-03-2020 17 (14:00) 8.2 (00:00) 12.6 -- (--) -- (--) 0.6 0.2 0 0.4 0
22-03-2020 17.8 (16:00) 5.4 (07:40) 11.6 11.94 (19:30) 6.39 (19:30) 2 0 0 0 2
21-03-2020 13.3 (16:20) 8.3 (00:00) 10.8 10.28 (00:40) 5.28 (16:10) 17.4 11.4 5.8 0.2 0
20-03-2020 13.6 (01:30) 10 (00:00) 11.8 13.33 (07:30) 7.5 (07:20) 62.8 0 29.2 14.8 18.8
19-03-2020 17.7 (16:30) 10.6 (00:00) 14.2 12.78 (01:40) 7.78 (17:10) 0 0 0 0 0
18-03-2020 19.4 (13:30) 12 (00:00) 15.7 17.22 (10:50) 10 (10:50) 0 0 0 0 0
17-03-2020 17.3 (16:20) 3.4 (00:00) 10.3 14.17 (16:10) 8.06 (13:40) 0 0 0 0 0
16-03-2020 10.6 (15:40) 5.3 (00:00) 8 12.78 (09:40) 7.78 (09:10) 4 0 0 0 4
15-03-2020 22.3 (14:30) 6.8 (00:00) 14.5 14.17 (16:40) 9.44 (17:50) 0 0 0 0 0
14-03-2020 24.8 (17:30) 10.3 (00:00) 17.5 7.5 (00:20) 4.17 (00:20) 0 0 0 0 0
13-03-2020 22.8 (15:20) 10.3 (07:40) 16.5 8.06 (17:50) 5 (17:50) 0 0 0 0 0
12-03-2020 24.9 (16:40) 10.7 (00:00) 17.8 4.72 (06:30) 2.78 (06:20) 0 0 0 0 0
11-03-2020 24.9 (14:50) 8.7 (00:00) 16.8 4.72 (11:50) 2.78 (11:40) 0 0 0 0 0

Gráficas

Temp. máximas Temp. mínimas Temp. medias Precipitaciones Rachas de viento máximas Velocidades máximas media en intervalos de 10 minutos

Datos horarios

Fecha y hora oficial Temperatura (ºC) Velocidad del viento (km/h) Dirección del viento Racha (km/h) Dirección de racha Precipitación (mm) Presión (hPa) Tendencia (hPa) Humedad (%)
2020-04-09 23:00:00 13.6 3 Norte 9 Este 0 983.7 1.3 96
2020-04-09 22:00:00 13.4 7 Este 13 Este 0 983 0.8 96
2020-04-09 21:00:00 13.6 7 Este 15 Este 0 982.4 0.3 97
2020-04-09 20:00:00 13.7 9 Este 18 Este 0 982.4 0.4 96
2020-04-09 19:00:00 13.6 11 Este 18 Este 0 982.2 0.2 97
2020-04-09 18:00:00 13.4 12 Este 23 Este 1.4 982.1 -0.4 97
2020-04-09 17:00:00 13.5 16 Este 24 Este 0.8 982 -0.8 96
2020-04-09 16:00:00 13.9 15 Este 26 Este 1.6 982 -0.5 96
2020-04-09 15:00:00 13.8 4 Nordeste 14 Nordeste 1 982.5 -0.2 92
2020-04-09 14:00:00 14 6 Este 26 Este 0.6 982.8 0.3 89
2020-04-09 13:00:00 14.1 17 Este -- -- 0 982.5 0.5 87
2020-04-09 12:00:00 13.7 -- -- -- -- 0.2 982.7 1.1 89
2020-04-09 11:00:00 14.8 17 Este 29 Este 0.4 982.5 1.6 91
2020-04-09 10:00:00 15.8 4 Este 8 Este 0.2 982 1.3 96
2020-04-09 09:00:00 15.5 4 Este 7 Este 0 981.6 0.9 95
2020-04-09 08:00:00 15.5 4 Oeste 6 Oeste 0 980.9 -0.1 94
2020-04-09 07:00:00 15.6 4 Noroeste 7 Noroeste 0 980.7 -0.7 93
2020-04-09 06:00:00 15.8 5 Noroeste 9 Noroeste 0 980.7 -0.9 92
2020-04-09 05:00:00 15.8 5 Noroeste 8 Noroeste 0 981 -1.2 93
2020-04-09 04:00:00 15.8 5 Oeste 11 Noroeste 0 981.4 -0.9 92
2020-04-09 03:00:00 16.4 6 Noroeste 8 Noroeste 0 981.6 -1.1 88
2020-04-09 02:00:00 16.7 4 Noroeste 10 Noroeste 0 982.2 -0.7 89
2020-04-09 01:00:00 17 7 Noroeste 13 Oeste 0 982.3 -0.1 86
2020-04-09 00:00:00 17.7 6 Noroeste 10 Noroeste 0 982.7 0.6 79
2020-04-08 23:00:00 18 6 Noroeste 12 Oeste 0 982.9 0.6 79
2020-04-08 22:00:00 18.9 5 Noroeste 14 Oeste 0 982.4 0.2 71
2020-04-08 21:00:00 20 4 Oeste 8 Oeste 0 982.1 -0.2 70
2020-04-08 20:00:00 21.5 3 Sudeste 7 Este 0 982.3 -0.5 63
2020-04-08 19:00:00 22 5 Este 10 Sudoeste 0 982.2 -1.2 55
2020-04-08 18:00:00 23.2 7 Oeste 15 Oeste 0 982.3 -1.7 51
2020-04-08 17:00:00 22.8 4 Oeste 16 Oeste 0 982.8 -1.7 57
2020-04-08 16:00:00 21.5 4 Sudeste 16 Sudeste 0 983.4 -1.8 64
2020-04-08 15:00:00 21 11 Este 22 Este 0 984 -1.7 63
2020-04-08 14:00:00 20.6 13 Este 30 Sudeste 0 984.5 -1.3 69
2020-04-08 13:00:00 19 15 Este 26 Este 0 985.2 -0.5 77
2020-04-08 12:00:00 17.2 13 Este 21 Este 0 985.7 0.1 83
2020-04-08 11:00:00 15.8 11 Este 17 Sudeste 0 985.8 0.7 90
2020-04-08 10:00:00 13.3 9 Este 15 Este 0 985.7 0.6 99
2020-04-08 09:00:00 11.3 0 Calma 3 Oeste 0 985.6 0.4 99
2020-04-08 08:00:00 9.7 0 Calma 8 Oeste 0 985.1 -0.4 98
2020-04-08 07:00:00 11.1 7 Este 12 Este 0 985.1 -0.7 99
2020-04-08 06:00:00 11.7 10 Este 15 Este 0 985.2 -0.9 98
2020-04-08 05:00:00 12 9 Este 10 Este 0 985.5 -0.8 97
2020-04-08 04:00:00 13 3 Sur 11 Este 0 985.8 -0.4 95
2020-04-08 03:00:00 13.8 5 Este 11 Este 0 986.1 0 96
2020-04-08 02:00:00 14.1 8 Este 15 Este 0 986.3 0.3 94
2020-04-08 01:00:00 14.4 11 Este 18 Este 0 986.2 0.7 94
2020-04-08 00:00:00 14.6 10 Este 16 Este 0 986.1 1.4 93
2020-04-07 23:00:00 15.1 10 Este 14 Este 0 986 1 89
2020-04-07 22:00:00 15.5 10 Este 14 Este 0 985.5 1 86
2020-04-07 21:00:00 17 8 Este 13 Sudeste 0 984.7 0.3 80
2020-04-07 20:00:00 18.8 10 Sudeste 18 Sudeste 0 985 0.1 75
2020-04-07 19:00:00 19.9 10 Sudeste 20 Sudeste 0 984.5 -0.5 73
2020-04-07 18:00:00 19.9 10 Sudeste 24 Sudeste 0 984.4 -0.9 77
2020-04-07 17:00:00 20.1 14 Sur 32 Sudeste 0 984.9 -0.8 80
2020-04-07 16:00:00 19.6 15 Sur 27 Sur 0 985 -0.7 76
2020-04-07 15:00:00 17.8 2 Nordeste 10 Sudeste 0.2 985.3 -0.4 88
2020-04-07 14:00:00 16.2 8 Sur 22 Este 0.4 985.7 0.4 97
2020-04-07 13:00:00 15.4 14 Sudeste 24 Sudeste 0.2 985.7 0.6 99
2020-04-07 12:00:00 14.5 16 Este 28 Este 0.2 985.7 1 99
2020-04-07 11:00:00 14.1 16 Este 27 Este 0.2 985.3 1 99
2020-04-07 10:00:00 13.5 15 Este 24 Este 0.2 985.1 1 99
2020-04-07 09:00:00 13.2 17 Este 26 Este 0 984.7 0.8 98
2020-04-07 08:00:00 13.5 14 Este 21 Este 0 984.3 0.2 98
2020-04-07 07:00:00 13.6 9 Este 21 Este 0 984.1 -0.3 98
2020-04-07 06:00:00 13.6 13 Este 20 Este 0.4 983.9 -0.8 98
2020-04-07 05:00:00 13.4 12 Este 23 Este 0.4 984.1 -0.6 98
2020-04-07 04:00:00 13.2 14 Este 25 Este 0.4 984.4 -0.2 98
2020-04-07 03:00:00 13.3 15 Este 26 Este 1.4 984.7 0 98
2020-04-07 02:00:00 13.4 11 Este 20 Este 1.6 984.7 0.2 97
2020-04-07 01:00:00 13.4 9 Este 18 Este 0 984.6 0.1 95
2020-04-07 00:00:00 13.1 8 Nordeste 15 Este 0 984.7 0.9 94
2020-04-06 23:00:00 13.4 9 Este 14 Este 0.4 984.5 0.9 95
2020-04-06 22:00:00 14.2 5 Este 8 Este 1.2 984.5 1.5 92
2020-04-06 21:00:00 14.8 2 Sudeste 13 Sur 0.2 983.8 0.6 89
2020-04-06 20:00:00 15.5 8 Sur 18 Sudeste 0.2 983.6 0 83
2020-04-06 19:00:00 16.5 5 Sudeste 8 Sudeste 0 983 -1 81
2020-04-06 18:00:00 16.9 3 Sudoeste 8 Sudeste 0 983.2 -0.9 78
2020-04-06 17:00:00 16.8 4 Oeste 9 Oeste 0 983.6 -0.6 76
2020-04-06 16:00:00 17.2 2 Sudeste 12 Sur 0 984 -0.5 74
2020-04-06 15:00:00 16.6 4 Este 16 Sudeste 0 984.1 -0.2 73
2020-04-06 14:00:00 16.2 5 Sudeste 14 Sudeste 0 984.2 0.5 79
2020-04-06 13:00:00 14.8 3 Sudoeste 7 Sudeste 0.2 984.5 1.4 86
2020-04-06 12:00:00 14.2 3 Sudeste 7 Sur 0 984.3 2.2 89
2020-04-06 11:00:00 13.5 5 Sudoeste 9 Sur 0 983.7 2.3 92
2020-04-06 10:00:00 12.1 2 Sudoeste 9 Nordeste 0 983.1 2.3 97
2020-04-06 09:00:00 11.1 7 Este 10 Este 0 982.1 1.6 97
2020-04-06 08:00:00 11.4 4 Sur 17 Sudoeste 0 981.4 1.1 96
2020-04-06 07:00:00 11.8 3 Oeste 13 Oeste 0 980.8 0.9 96
2020-04-06 06:00:00 11.5 6 Sudoeste 16 Sudoeste 0 980.5 0.9 96
2020-04-06 05:00:00 12 6 Sudoeste 12 Sudoeste 0 980.3 0.5 95
2020-04-06 04:00:00 12.9 2 Sur 10 Sur 0 979.9 0.4 95
2020-04-06 03:00:00 13.8 5 Sur 11 Sudeste 0 979.6 0.5 95
2020-04-06 02:00:00 14.1 6 Sur 16 Sur 0 979.8 1.2 96
2020-04-06 01:00:00 14 7 Sur 22 Sur 0 979.5 1.4 96
2020-04-06 00:00:00 14.1 6 Sudeste 24 Sudeste 0 979.1 1.3 96
2020-04-05 23:00:00 14.3 12 Sudeste 23 Sur 0 978.6 1.1 96
2020-04-05 22:00:00 14.7 13 Sudeste 28 Sur 0 978.1 1.2 95
2020-04-05 21:00:00 14.7 10 Este 26 Sur 2 977.8 0.7 95
2020-04-05 20:00:00 15.2 8 Sur 21 Sur 1.4 977.5 0.2 93
2020-04-05 19:00:00 15.9 8 Sudeste 14 Sudeste 0.4 976.9 -0.8 90
2020-04-05 18:00:00 14.9 9 Este 20 Este 0.8 977.1 -1.6 91
2020-04-05 17:00:00 14.2 15 Este 29 Este 0.8 977.3 -1.1 93
2020-04-05 16:00:00 14.7 15 Este 26 Este 1.2 977.7 -1 93
2020-04-05 15:00:00 14.8 3 Noroeste -- -- 2.6 978.7 -0.2 86
2020-04-05 14:00:00 16.1 -- -- -- -- 0 978.4 -0.5 68
2020-04-05 13:00:00 15.4 17 Sudeste -- -- 0 978.7 -0.2 69
2020-04-05 12:00:00 14.9 -- -- -- -- 0 978.9 0.2 68
2020-04-05 11:00:00 14.1 -- -- -- -- 0 978.9 0.8 69
2020-04-05 10:00:00 13 17 Este -- -- 0 978.9 1.1 72
2020-04-05 09:00:00 12.6 -- -- -- -- 0 978.7 1.5 73
2020-04-05 08:00:00 12.5 15 Este 27 Sudeste 0 978.1 0.6 74
2020-04-05 07:00:00 12.6 12 Este 22 Este 0 977.8 0.1 77
2020-04-05 06:00:00 12.7 14 Este 21 Este 0 977.2 -0.6 76
2020-04-05 05:00:00 12.6 14 Este 20 Este 0 977.5 -0.3 76
2020-04-05 04:00:00 12.8 12 Este 19 Este 0 977.7 -0.1 74
2020-04-05 03:00:00 13.1 14 Este 22 Este 0 977.8 0.2 72
2020-04-05 02:00:00 13.7 10 Este 21 Sudeste 0 977.8 0.1 70
2020-04-05 01:00:00 13.6 11 Este 17 Este 0 977.8 0.7 70
2020-04-05 00:00:00 13.7 6 Sudeste 11 Sudoeste 0 977.6 1.2 71
2020-04-04 23:00:00 14.1 4 Sur 13 Sudeste 0 977.7 1.6 66
2020-04-04 22:00:00 14.7 6 Sur 17 Sudoeste 0 977.1 1.5 65
2020-04-04 21:00:00 15.5 8 Sur 24 Sur 0 976.4 0.7 60
2020-04-04 20:00:00 16.7 12 Sur 26 Sudeste 0 976.1 0.3 53
2020-04-04 19:00:00 17.9 13 Sudeste 30 Sudeste 0 975.6 -0.3 50
2020-04-04 18:00:00 18 16 Sudeste -- -- 0 975.7 -0.3 50
2020-04-04 17:00:00 17.6 -- -- -- -- 0 975.8 -0.5 52
2020-04-04 16:00:00 17.8 -- -- -- -- 0 975.9 -1 50
2020-04-04 15:00:00 18.5 -- -- -- -- 0 976 -1.2 52
2020-04-04 14:00:00 18.1 -- -- -- -- 0 976.3 -0.7 55
2020-04-04 13:00:00 17.1 -- -- -- -- 0 976.9 -0.3 55
2020-04-04 12:00:00 15.4 -- -- -- -- 0 977.2 0.2 57
2020-04-04 11:00:00 13.9 -- -- -- -- 0 977 0.2 62
2020-04-04 10:00:00 11.7 -- -- -- -- 0 977.2 0.9 67
2020-04-04 09:00:00 9.5 15 Este 26 Este 0 977 0.6 70
2020-04-04 08:00:00 8.8 12 Este 24 Este 0 976.8 0.3 71
2020-04-04 07:00:00 9.7 15 Este 28 Este 0 976.3 -0.6 66
2020-04-04 06:00:00 9 13 Este 25 Este 0 976.4 -1.1 72
2020-04-04 05:00:00 10.4 16 Este 27 Este 0 976.5 -1.1 66
2020-04-04 04:00:00 10.7 16 Este 23 Nordeste 0 976.9 -0.7 65
2020-04-04 03:00:00 10.9 12 Este 17 Este 0 977.5 -0.4 65
2020-04-04 02:00:00 12.3 12 Este 18 Este 0 977.6 -0.4 60
2020-04-04 01:00:00 13.2 9 Este 17 Este 0 977.6 0.1 60
2020-04-04 00:00:00 13.5 10 Nordeste 17 Este 0 977.9 0.7 60
2020-04-03 23:00:00 14.6 0 Calma 5 Sudeste 0 978 0.8 54
2020-04-03 22:00:00 15.7 0 Calma 4 Noroeste 0 977.5 0.4 52
2020-04-03 21:00:00 17.9 0 Calma 8 Sur 0 977.2 0 47
2020-04-03 20:00:00 20.1 5 Sudoeste 16 Sudeste 0 977.2 -0.4 46
2020-04-03 19:00:00 20.5 7 Sur 19 Sudeste 0 977.1 -1.1 39
2020-04-03 18:00:00 20.2 6 Este 20 Sudeste 0 977.2 -1.8 36
2020-04-03 17:00:00 20.3 6 Sudeste 22 Este 0 977.6 -2 37
2020-04-03 16:00:00 19.7 10 Sudeste 26 Sudeste 0 978.2 -1.9 40
2020-04-03 15:00:00 19.2 10 Sudeste 23 Sudeste 0 979 -1.5 44
2020-04-03 14:00:00 18.1 13 Este 24 Sudeste 0 979.6 -0.7 45
2020-04-03 13:00:00 17 13 Sudeste 24 Sudeste 0 980.1 0.2 52
2020-04-03 12:00:00 15.3 8 Este 16 Sudeste 0 980.5 0.7 64
2020-04-03 11:00:00 12.9 7 Este 14 Sudeste 0 980.3 1.2 70
2020-04-03 10:00:00 10 9 Este 17 Este 0 979.9 1 76
2020-04-03 09:00:00 7.7 6 Este 9 Este 0 979.8 1.2 87
2020-04-03 08:00:00 6.4 3 Este 10 Este 0 979.1 0.5 83
2020-04-03 07:00:00 7.2 0 Calma 12 Este 0 978.9 0.2 82
2020-04-03 06:00:00 7.4 3 Este 9 Sur 0 978.6 -0.3 81
2020-04-03 05:00:00 8.1 0 Calma 13 Sudeste 0 978.6 -0.4 78
2020-04-03 04:00:00 8.9 3 Sur 23 Norte 0 978.7 -0.2 74
2020-04-03 03:00:00 11.3 13 Nordeste 22 Nordeste 0 978.9 -0.1 65
2020-04-03 02:00:00 10.9 9 Norte 23 Norte 0 979 0.5 66
2020-04-03 01:00:00 12.4 13 Norte 28 Norte 0 978.9 1.3 60
2020-04-03 00:00:00 12.8 12 Norte -- -- 0 979 2.2 60
2020-04-02 23:00:00 13.9 13 Nordeste 28 Nordeste 0 978.5 2 55
2020-04-02 22:00:00 14.8 -- -- -- -- 0 977.6 1.6 54
2020-04-02 21:00:00 15.9 8 Norte -- -- 0 976.8 1.1 51
2020-04-02 20:00:00 17.5 8 Noroeste -- -- 0 976.5 0.7 47
2020-04-02 19:00:00 17.8 -- -- -- -- 0 976 0.1 45
2020-04-02 18:00:00 18.4 7 Norte -- -- 0 975.7 -0.5 43
2020-04-02 17:00:00 17.7 10 Noroeste 21 Noroeste 0 975.8 -0.4 45
2020-04-02 16:00:00 17.6 6 Noroeste 21 Norte 0 975.9 -0.6 46
2020-04-02 15:00:00 16.6 6 Oeste 25 Noroeste 0 976.2 -0.4 52
2020-04-02 14:00:00 16.1 8 Noroeste 21 Oeste 0 976.2 0 52
2020-04-02 13:00:00 15 10 Norte 24 Noroeste 0 976.5 0.9 52
2020-04-02 12:00:00 12.4 11 Noroeste 21 Noroeste 0 976.6 1.2 63
2020-04-02 11:00:00 11.6 5 Sudoeste -- -- 0 976.2 1.5 70
2020-04-02 10:00:00 8.7 4 Norte 13 Norte 0 975.6 1.2 82
2020-04-02 09:00:00 5.3 9 Noroeste -- -- 0 975.4 1.2 95
2020-04-02 08:00:00 5.2 6 Sur 14 Este 0 974.7 0.3 90
2020-04-02 07:00:00 6.3 4 Nordeste 6 Nordeste 0 974.4 0.1 93
2020-04-02 06:00:00 7 5 Noroeste 12 Noroeste 0 974.2 -0.8 92
2020-04-02 05:00:00 7.5 6 Noroeste -- -- 0 974.4 -0.9 92
2020-04-02 04:00:00 7.5 7 Noroeste 15 Noroeste 0 974.3 -1.1 91
2020-04-02 03:00:00 7.2 11 Norte 21 Noroeste 0 975 -0.2 92
2020-04-02 02:00:00 7.6 9 Noroeste 16 Noroeste 0 975.3 0.1 89
2020-04-02 01:00:00 9 10 Sudoeste 24 Sudoeste 0 975.4 0.7 80
2020-04-02 00:00:00 9.9 6 Nordeste 12 Este 0 975.2 1.2 71
2020-04-01 23:00:00 9.3 6 Este 14 Este 0 975.2 1.3 73
2020-04-01 22:00:00 9.4 5 Este 10 Sudeste 0 974.7 0.9 73
2020-04-01 21:00:00 10.5 5 Sudeste 19 Sur 0 974 0.1 69
2020-04-01 20:00:00 12.3 10 Sudeste 23 Sudeste 0 973.9 -0.2 61
2020-04-01 19:00:00 12.9 9 Sudeste 23 Sudeste 0 973.8 -0.9 60
2020-04-01 18:00:00 14.8 9 Sudeste 21 Sudeste 0 973.9 -1.5 47
2020-04-01 17:00:00 15 10 Sur 28 Sudeste 0 974.1 -1.6 48
2020-04-01 16:00:00 14.1 13 Sudeste 24 Sudeste 0 974.7 -1.3 59
2020-04-01 15:00:00 13.7 9 Sur 19 Sudeste 0 975.4 -0.9 59
2020-04-01 14:00:00 12.2 7 Este 14 Sudoeste 0 975.7 -0.4 65
2020-04-01 13:00:00 10.8 6 Sudoeste 17 Sudeste 0 976 0.3 71
2020-04-01 12:00:00 8 4 Sudoeste 10 Sudoeste 0 976.3 1.2 98
2020-04-01 11:00:00 6.2 5 Noroeste 10 Oeste 0 976.1 1.6 99
2020-04-01 10:00:00 3.9 3 Sur 6 Sur 0 975.7 1.6 98
2020-04-01 09:00:00 3.6 0 Calma 6 Noroeste 0 975.1 1.2 99
2020-04-01 08:00:00 3.1 0 Calma 10 Sudoeste 0 974.5 0.7 98
2020-04-01 07:00:00 4.4 2 Sudoeste 8 Este 0 974.1 0.3 98
2020-04-01 06:00:00 4.9 6 Este 10 Este 0 973.9 -0.1 98
2020-04-01 05:00:00 3.7 8 Este 10 Este 0 973.8 0.1 97
2020-04-01 04:00:00 4.4 2 Sudeste 5 Nordeste 0 973.8 0.6 96
2020-04-01 03:00:00 4.7 2 Sudeste 8 Sudoeste 0 974 1.5 96
2020-04-01 02:00:00 4.7 5 Sudoeste -- -- 0 973.7 2.2 95
2020-04-01 01:00:00 5.6 4 Oeste 13 Sudoeste 0 973.2 2.8 94
2020-04-01 00:00:00 6.9 5 Sudoeste 19 Sudoeste 0 972.5 3.1 94
2020-03-31 23:00:00 8.2 14 Sudoeste 26 Sudoeste 4 971.5 2.9 94
2020-03-31 22:00:00 10.3 2 Sudoeste 5 Sudoeste 0 970.4 2.7 94
2020-03-31 21:00:00 10.6 0 Calma -- -- 2 969.4 1.9 93
2020-03-31 20:00:00 10.5 12 Sudeste -- -- 0.8 968.6 1.2 92
2020-03-31 19:00:00 10.7 -- -- -- -- 0 967.7 0.2 89
2020-03-31 18:00:00 11.3 -- -- -- -- 0 967.5 0 84
2020-03-31 17:00:00 10.9 -- -- -- -- 0 967.4 -0.3 89
2020-03-31 16:00:00 9.9 -- -- -- -- 0 967.5 -0.2 87
2020-03-31 15:00:00 8.6 -- -- -- -- 0.2 967.5 -0.2 92
2020-03-31 14:00:00 7.4 -- -- -- -- 0.2 967.7 0.1 95
2020-03-31 13:00:00 6.8 -- -- -- -- 2 967.7 -0.1 96
2020-03-31 12:00:00 6.1 -- -- -- -- 0.6 967.7 -0.3 95
2020-03-31 11:00:00 5 12 Este 24 Este 2.2 967.6 -0.4 95
2020-03-31 10:00:00 4.2 10 Nordeste 24 Nordeste 2.8 967.8 -0.5 94
2020-03-31 09:00:00 3.8 13 Nordeste 25 Nordeste 2.2 968 -0.4 93
2020-03-31 08:00:00 4 13 Nordeste 24 Nordeste 2.4 968 -0.8 91
2020-03-31 07:00:00 4.3 12 Este -- -- 1.8 968.3 -1.3 93
2020-03-31 06:00:00 4.5 -- -- -- -- 0.4 968.4 -2.1 91
2020-03-31 05:00:00 4.5 13 Este 29 Este 0 968.8 -2.5 90
2020-03-31 04:00:00 4.5 12 Este -- -- 0 969.6 -2.6 92
2020-03-31 03:00:00 4.6 19 Este -- -- 0.2 970.5 -2.4 90
2020-03-31 02:00:00 4.9 -- -- -- -- 0 971.3 -2.1 90
2020-03-31 01:00:00 5.3 18 Este 37 Este 0 972.2 -1.5 84
2020-03-31 00:00:00 5.1 16 Este 33 Este 0 972.9 -0.4 80
2020-03-30 23:00:00 5.1 18 Nordeste -- -- 0 973.4 0.3 81
2020-03-30 22:00:00 5.3 21 Nordeste -- -- 0 973.7 0.8 78
2020-03-30 21:00:00 6 23 Nordeste -- -- 0 973.3 0.2 69
2020-03-30 20:00:00 6.8 -- -- -- -- 0 973.1 -0.7 65
2020-03-30 19:00:00 7.1 30 Nordeste -- -- 0 972.9 -1.6 63
2020-03-30 18:00:00 8.7 29 Nordeste -- -- 0 973.1 -1.9 54
2020-03-30 17:00:00 9.4 -- -- -- -- 0 973.8 -1.9 50
2020-03-30 16:00:00 9.6 26 Nordeste -- -- 0 974.5 -1.3 53
2020-03-30 15:00:00 10.8 -- -- -- -- 0 975 -1.4 51
2020-03-30 14:00:00 10.2 24 Nordeste -- -- 0 975.7 -0.8 55
2020-03-30 13:00:00 10 26 Nordeste -- -- 0 975.8 -0.5 57
2020-03-30 12:00:00 11.2 -- -- -- -- 0 976.4 0 54
2020-03-30 11:00:00 11.5 24 Nordeste -- -- 0 976.5 0.5 51
2020-03-30 10:00:00 10.6 18 Nordeste 36 Nordeste 0 976.3 0.3 55
2020-03-30 09:00:00 9.5 12 Nordeste 26 Nordeste 0 976.4 0.4 63
2020-03-30 08:00:00 8.4 4 Este 12 Nordeste 0 976 -0.4 71
2020-03-30 07:00:00 8.9 3 Este 14 Nordeste 0 976 -1 69
2020-03-30 06:00:00 9.3 6 Este 14 Este 0 976 -1.4 77
2020-03-30 05:00:00 10.9 8 Este 15 Este 0 976.4 -1.5 78
2020-03-30 04:00:00 10.9 7 Noroeste 12 Oeste 0 977 -1 75
2020-03-30 03:00:00 11.8 6 Oeste 12 Noroeste 0 977.4 -1.1 74
2020-03-30 02:00:00 11.8 2 Noroeste 11 Noroeste 0 977.9 -0.8 70
2020-03-30 01:00:00 12 6 Noroeste 12 Noroeste 0 978 -0.8 69
2020-03-30 00:00:00 12.6 6 Noroeste 11 Oeste 0 978.5 0 68
2020-03-29 23:00:00 13.4 7 Noroeste 15 Oeste 0 978.7 0.1 63
2020-03-29 22:00:00 14.3 8 Oeste 14 Oeste 0 978.8 0.1 58
2020-03-29 21:00:00 16.2 3 Noroeste 6 Oeste 0 978.5 -0.4 49
2020-03-29 20:00:00 18.1 3 Oeste 12 Sudoeste 0 978.6 -0.8 50
2020-03-29 19:00:00 19.2 7 Sudoeste 18 Sudoeste 0 978.7 -1.4 43
2020-03-29 18:00:00 20.5 6 Sudoeste 18 Sudoeste 0 978.9 -1.9 36
2020-03-29 17:00:00 20.2 5 Sudoeste 17 Sudoeste 0 979.4 -1.8 35
2020-03-29 16:00:00 19.4 9 Sudoeste 23 Sudoeste 0 980.1 -1.6 35
2020-03-29 15:00:00 19.8 5 Sudeste 15 Sudoeste 0 980.8 -1.3 33
2020-03-29 14:00:00 18.7 8 Sur 17 Sur 0 981.2 -1.2 39
2020-03-29 13:00:00 16.9 5 Sudeste 13 Este 0 981.7 -0.5 50
2020-03-29 12:00:00 14.1 2 Norte 9 Sur 0 982.1 -0.1 60
2020-03-29 11:00:00 11.5 3 Sudoeste 7 Sudoeste 0 982.4 0.6 77
2020-03-29 10:00:00 9 3 Sur 5 Sudeste 0 982.2 0.7 80
2020-03-29 09:00:00 6.3 3 Este 8 Este 0 982.2 0.6 82
2020-03-29 08:00:00 5.5 3 Nordeste 9 Este 0 981.8 0.3 85
2020-03-29 07:00:00 5.8 10 Este 15 Este 0 981.5 -0.4 89
2020-03-29 06:00:00 6 3 Este 12 Este 0 981.6 -0.5 84
2020-03-29 05:00:00 6.9 3 Este 6 Este 0 981.5 -0.7 83
2020-03-29 03:00:00 8.7 0 Calma 6 Este 0 982.1 0.2 78
2020-03-29 01:00:00 9.3 2 Nordeste 6 Nordeste 0 982.2 0.6 73
2020-03-29 00:00:00 10 6 Este 9 Este 0 982 0.9 73
2020-03-28 23:00:00 11.4 3 Noroeste 8 Oeste 0 981.9 1.4 62
2020-03-28 22:00:00 13.1 5 Nordeste 9 Nordeste 0 981.6 1.5 53
2020-03-28 21:00:00 13.7 6 Nordeste 11 Nordeste 0 981.1 1.5 51
2020-03-28 20:00:00 14.7 8 Nordeste 12 Nordeste 0 980.5 0.9 50
2020-03-28 19:00:00 16.4 8 Este 19 Este 0 980.1 0.4 47
2020-03-28 18:00:00 17.7 9 Este 23 Este 0 979.6 -0.3 41
2020-03-28 17:00:00 17.5 12 Este 27 Este 0 979.6 -0.8 46
2020-03-28 16:00:00 16.6 17 Este -- -- 0 979.7 -1.2 43
2020-03-28 15:00:00 16.5 -- -- -- -- 0 979.9 -1.2 41
2020-03-28 14:00:00 15.4 -- -- -- -- 0 980.4 -0.7 44
2020-03-28 13:00:00 14.8 -- -- -- -- 0 980.9 0 51
2020-03-28 12:00:00 13.2 -- -- -- -- 0 981.1 0.4 52
2020-03-28 11:00:00 11.9 -- -- -- -- 0 981.1 1 57
2020-03-28 10:00:00 10 18 Este 30 Este 0 980.9 1.2 65
2020-03-28 09:00:00 7.2 6 Este 12 Este 0 980.7 1.5 78
2020-03-28 08:00:00 5.7 0 Calma 6 Este 0 980.1 1.1 79
2020-03-28 07:00:00 5.3 5 Este 9 Este 0 979.7 0.8 79
2020-03-28 06:00:00 5.3 4 Este 9 Nordeste 0 979.2 0.2 79
2020-03-28 05:00:00 5.7 5 Nordeste 11 Sudeste 0 979 0.1 76
2020-03-28 04:00:00 6.3 5 Norte 9 Norte 0 978.9 0.3 72
2020-03-28 03:00:00 5.7 6 Norte 13 Norte 0 979 0.6 78
2020-03-28 02:00:00 5.8 5 Noroeste 9 Este 0 978.9 0.9 75
2020-03-28 01:00:00 6.7 7 Este 15 Este 0 978.6 1.3 70
2020-03-28 00:00:00 7.7 8 Este 17 Nordeste 0 978.4 1.8 67
2020-03-27 23:00:00 8 9 Este 22 Este 0 978 2.1 65
2020-03-27 22:00:00 8.9 12 Este 21 Este 0 977.3 2 61
2020-03-27 21:00:00 9.3 10 Este 18 Este 0 976.6 1.8 60
2020-03-27 20:00:00 10.2 11 Este -- -- 0 975.9 1.5 59
2020-03-27 19:00:00 12.3 17 Este -- -- 0 975.3 1 49
2020-03-27 18:00:00 13.1 -- -- -- -- 0 974.8 0.6 40
2020-03-27 17:00:00 14 -- -- -- -- 0 974.4 0 47
2020-03-27 16:00:00 14.1 -- -- -- -- 0 974.3 0 47
2020-03-27 15:00:00 14 -- -- -- -- 0 974.2 0 51
2020-03-27 14:00:00 14 -- -- -- -- 0 974.4 0.4 51
2020-03-27 13:00:00 13.8 -- -- -- -- 0 974.3 0.5 49
2020-03-27 12:00:00 13 -- -- -- -- 0 974.2 1 51
2020-03-27 11:00:00 11.8 -- -- -- -- 0 974 1.3 52
2020-03-27 10:00:00 11.1 18 Este 31 Este 0 973.8 1.8 49
2020-03-27 09:00:00 8.7 15 Nordeste 27 Nordeste 0 973.2 1.4 57
2020-03-27 08:00:00 7.7 14 Nordeste -- -- 0 972.7 1 58
2020-03-27 07:00:00 7.5 -- -- -- -- 0 972 0.5 58
2020-03-27 06:00:00 5.8 3 Nordeste 12 Nordeste 0 971.8 0.1 77
2020-03-27 05:00:00 6.7 8 Este 18 Este 0 971.7 -0.3 76
2020-03-27 04:00:00 8.3 10 Este 19 Nordeste 0 971.5 -0.5 76
2020-03-27 03:00:00 9.1 4 Norte 9 Noroeste 0 971.7 -0.1 73
2020-03-27 02:00:00 9.7 3 Sudoeste 14 Norte 0 972 0.2 73
2020-03-27 01:00:00 10.9 5 Nordeste 8 Norte 0 972 0.2 66
2020-03-27 00:00:00 10.3 4 Oeste 9 Oeste 0 971.8 0.2 73
2020-03-26 23:00:00 11.3 5 Noroeste 21 Norte 0 971.8 0.8 71
2020-03-26 22:00:00 14.3 13 Norte 23 Noroeste 0 971.8 0.9 57
2020-03-26 21:00:00 14.5 6 Noroeste 15 Norte 0 971.6 0.8 47
2020-03-26 20:00:00 17.5 9 Nordeste 15 Nordeste 0 971 -0.2 30
2020-03-26 19:00:00 20.6 5 Nordeste 16 Noroeste 0 970.9 -0.9 23
2020-03-26 18:00:00 21.7 4 Oeste 28 Noroeste 0 970.8 -1.6 29
2020-03-26 17:00:00 21.5 9 Oeste 24 Noroeste 0 971.2 -1.9 30
2020-03-26 16:00:00 21 12 Noroeste -- -- 0 971.8 -2 26
2020-03-26 15:00:00 20.2 10 Noroeste -- -- 0 972.4 -2.1 26
2020-03-26 14:00:00 19.2 -- -- -- -- 0 973.1 -1.8 30
2020-03-26 13:00:00 17.7 16 Noroeste -- -- 0 973.8 -1.4 34
2020-03-26 12:00:00 15.9 14 Noroeste -- -- 0 974.5 -0.6 43
2020-03-26 11:00:00 15.4 15 Noroeste 26 Noroeste 0 974.9 -0.2 48
2020-03-26 10:00:00 14.6 12 Norte 27 Noroeste 0 975.2 0.5 50
2020-03-26 09:00:00 12.4 7 Noroeste 18 Norte 0 975.1 0.5 63
2020-03-26 08:00:00 11.5 11 Norte 27 Norte 0 975.1 0.3 64
2020-03-26 07:00:00 10.5 13 Norte 26 Norte 0 974.7 -0.6 69
2020-03-26 06:00:00 12.3 15 Norte 28 Norte 0 974.6 -1.3 61
2020-03-26 05:00:00 12.2 13 Norte 26 Norte 0 974.8 -1.3 64
2020-03-26 04:00:00 12.3 13 Noroeste 21 Noroeste 0 975.3 -1 63
2020-03-26 03:00:00 12.8 6 Norte 17 Norte 0 975.9 -0.4 63
2020-03-26 02:00:00 13.2 8 Noroeste 24 Noroeste 0 976.1 -0.3 61
2020-03-26 01:00:00 12.9 9 Noroeste 20 Oeste 0 976.3 -0.2 65
2020-03-26 00:00:00 13.1 9 Noroeste 15 Oeste 0 976.3 0 69
2020-03-25 23:00:00 14.1 6 Oeste 18 Oeste 0 976.4 0.4 67
2020-03-25 22:00:00 14.6 9 Oeste 27 Oeste 0 976.5 0.4 69
2020-03-25 21:00:00 15.2 18 Oeste 29 Oeste 0 976.3 0.2 67
2020-03-25 20:00:00 15 8 Oeste 27 Oeste 0 976 -0.4 66
2020-03-25 19:00:00 16.8 12 Oeste 36 Oeste 0 976.1 -0.7 63
2020-03-25 18:00:00 19.4 18 Oeste 33 Oeste 0 976.1 -1.6 53
2020-03-25 17:00:00 19.6 16 Oeste 30 Oeste 0 976.4 -2.1 56
2020-03-25 16:00:00 20.5 14 Sudoeste 29 Sudoeste 0 976.8 -2.4 51
2020-03-25 15:00:00 20.1 8 Sudoeste 20 Sudoeste 0 977.7 -2.1 50
2020-03-25 14:00:00 19.3 9 Sudoeste 19 Sudoeste 0 978.5 -1.6 55
2020-03-25 13:00:00 17.2 9 Oeste 21 Sudoeste 0 979.2 -1.1 54
2020-03-25 12:00:00 16.5 6 Sudoeste 16 Sur 0 979.8 -0.1 55
2020-03-25 11:00:00 15.1 6 Sudeste 17 Sudeste 0 980.1 0.2 63
2020-03-25 10:00:00 13.7 10 Este 15 Sudeste 0 980.3 0.8 65
2020-03-25 09:00:00 11.9 3 Sudeste -- -- 0 979.9 0.6 76
2020-03-25 08:00:00 8.7 -- -- -- -- 0 979.9 0.5 83
2020-03-25 07:00:00 9.9 5 Este 14 Este 0 979.5 0 76
2020-03-25 06:00:00 10.5 8 Este 16 Este 0 979.3 -0.3 75
2020-03-25 05:00:00 11.1 10 Este 15 Este 0 979.4 -0.1 73
2020-03-25 04:00:00 11.1 9 Este 19 Este 0 979.5 0.4 75
2020-03-25 03:00:00 11.5 11 Este 18 Este 0 979.6 0.7 76
2020-03-25 02:00:00 11.4 7 Este 18 Este 0 979.5 0.7 75
2020-03-25 01:00:00 12.3 9 Este 17 Este 0 979.1 0.7 71
2020-03-25 00:00:00 12.5 6 Nordeste 14 Este 0 978.9 1 69
2020-03-24 23:00:00 12.8 9 Este 16 Este 0 978.8 1.5 68
2020-03-24 22:00:00 13.3 10 Este 16 Este 0 978.4 1.5 66
2020-03-24 21:00:00 14 10 Este 22 Este 0 977.9 1.4 63
2020-03-24 20:00:00 14.9 9 Este 27 Sudeste 0 977.3 0.9 60
2020-03-24 19:00:00 15.9 9 Este 40 Este 0 976.9 0.4 57
2020-03-24 18:00:00 17.7 20 Este 40 Este 0 976.5 -0.2 50
2020-03-24 17:00:00 18.3 25 Este 45 Este 0 976.4 -1.1 50
2020-03-24 16:00:00 18.7 22 Este 49 Este 0 976.5 -1.2 49
2020-03-24 15:00:00 17.3 30 Este 57 Este 0 976.7 -1 51
2020-03-24 14:00:00 18.1 27 Este 54 Este 0 977.5 -0.2 52
2020-03-24 13:00:00 16.9 30 Este 57 Este 0 977.7 -0.3 50
2020-03-24 12:00:00 17.1 36 Este 65 Este 0 977.7 0.1 51
2020-03-24 11:00:00 16.3 18 Este 31 Este 0 977.7 0.3 56
2020-03-24 10:00:00 14.1 13 Este 30 Este 0 978 1.1 62
2020-03-24 09:00:00 12.7 8 Nordeste 25 Nordeste 0 977.6 1 68
2020-03-24 08:00:00 12.1 8 Este 23 Este 0 977.4 0.4 67
2020-03-24 07:00:00 12.8 15 Nordeste 28 Nordeste 0 976.9 -0.4 62
2020-03-24 06:00:00 12.2 13 Este 28 Nordeste 0 976.6 -0.9 68
2020-03-24 05:00:00 12.1 8 Nordeste 23 Este 0 977 -0.7 71
2020-03-24 04:00:00 10.6 5 Nordeste 19 Este 0 977.3 -0.4 78
2020-03-24 03:00:00 10.6 10 Este 31 Este 0 977.5 0 77
2020-03-24 02:00:00 9.8 7 Este 14 Este 0 977.7 0.3 80
2020-03-24 01:00:00 9.9 8 Este 14 Este 0 977.7 0.6 80
2020-03-24 00:00:00 10.5 7 Este 18 Nordeste 0 977.5 0.8 76
2020-03-23 23:00:00 11.1 12 Este 30 Este 0 977.4 1.1 75
2020-03-23 22:00:00 11.6 12 Este 24 Nordeste 0 977.1 1.1 74
2020-03-23 21:00:00 12.8 8 Nordeste 20 Nordeste 0 976.7 0.9 69
2020-03-23 20:00:00 12.8 9 Norte -- -- 0 976.3 0.2 73
2020-03-23 19:00:00 14.4 13 Norte 22 Noroeste 0 976 0 68
2020-03-23 18:00:00 14.2 9 Nordeste 30 Este 0.2 975.8 -0.5 63
2020-03-23 17:00:00 11.6 23 Este 47 Este 0.2 976.1 -0.9 78
2020-03-23 16:00:00 16 26 Este 43 Este 0 976 -1.8 61
2020-03-23 15:00:00 16.5 18 Este 36 Sudeste 0 976.3 -1.8 61
2020-03-23 14:00:00 16.9 -- -- -- -- 0 977 -1 58
2020-03-23 13:00:00 16.2 15 Este 33 Este 0 977.8 -0.2 61
2020-03-23 12:00:00 14 14 Este 33 Este 0 978.1 0.4 69
2020-03-23 11:00:00 14 18 Este 30 Este 0 978 0.6 70
2020-03-23 10:00:00 13.1 13 Este 22 Este 0 978 1 75
2020-03-23 09:00:00 11.2 6 Este -- -- 0 977.7 1 89
2020-03-23 08:00:00 9 6 Nordeste -- -- 0 977.4 1.1 90
2020-03-23 07:00:00 8.9 5 Norte 10 Norte 0 977 0.9 92
2020-03-23 06:00:00 8.7 4 Nordeste 9 Este 0 976.7 0.5 95
2020-03-23 05:00:00 9 7 Este 14 Este 0 976.3 0.2 96
2020-03-23 04:00:00 9 7 Este 18 Este 0 976.1 -0.2 97
2020-03-23 03:00:00 9.1 10 Este 15 Este 0 976.2 -0.3 95
2020-03-23 02:00:00 9.3 7 Nordeste 10 Nordeste 0.2 976.1 -0.4 93
2020-03-23 01:00:00 10.2 4 Sudeste -- -- 0 976.3 -0.2 88
2020-03-23 00:00:00 10.7 3 Norte -- -- 0 976.5 0.7 90
2020-03-22 23:00:00 10.7 3 Noroeste 13 Nordeste 0 976.5 1.3 92
2020-03-22 22:00:00 10.7 9 Este 24 Nordeste 0 976.5 2.4 92
2020-03-22 21:00:00 10.6 12 Este 15 Este 0 975.8 2 95
2020-03-22 20:00:00 11.1 11 Este 43 Este 2 975.2 1.4 93
2020-03-22 19:00:00 15.2 9 Oeste 21 Oeste 0 974.1 0.1 67
2020-03-22 18:00:00 17 12 Oeste 21 Oeste 0 973.8 -0.8 58
2020-03-22 17:00:00 17.6 8 Sudoeste 20 Sudoeste 0 973.8 -1.3 49
2020-03-22 16:00:00 17.8 6 Sudoeste 15 Sudoeste 0 974 -1.8 57
2020-03-22 15:00:00 16.2 8 Sudoeste 15 Sudoeste 0 974.6 -1.2 58
2020-03-22 14:00:00 14.9 6 Sudoeste 14 Oeste 0 975.1 -0.9 65
2020-03-22 13:00:00 12.8 6 Oeste 17 Noroeste 0 975.8 -0.1 71
2020-03-22 12:00:00 14.1 4 Noroeste 14 Este 0 975.8 0.3 67
2020-03-22 11:00:00 11 6 Nordeste 13 Nordeste 0 976 1.1 78
2020-03-22 10:00:00 9 0 Calma 6 Sudoeste 0 975.9 1.5 92
2020-03-22 09:00:00 6.8 4 Sudeste 7 Nordeste 0 975.5 1.3 93
2020-03-22 08:00:00 6.5 5 Norte 12 Norte 0 974.9 0.9 92
2020-03-22 07:00:00 5.9 3 Nordeste 6 Este 0 974.4 0.4 95
2020-03-22 06:00:00 6 3 Nordeste 9 Sudeste 0 974.2 0 95
2020-03-22 05:00:00 6.2 0 Calma 10 Noroeste 0 974 -0.3 93
2020-03-22 04:00:00 6.6 7 Este 10 Este 0 974 -0.6 93
2020-03-22 03:00:00 8.8 8 Nordeste 17 Nordeste 0 974.2 -0.6 80
2020-03-22 02:00:00 9.1 8 Norte 14 Norte 0 974.3 -0.5 82
2020-03-22 01:00:00 9 4 Nordeste 8 Norte 0 974.6 0.1 88
2020-03-22 00:00:00 8.7 3 Nordeste 5 Noroeste 0 974.8 1 89
2020-03-21 23:00:00 9.3 0 Calma 10 Este 0 974.8 1.5 87
2020-03-21 22:00:00 9.5 7 Este 12 Sudeste 0 974.5 1.7 81
2020-03-21 21:00:00 10.5 6 Nordeste 13 Este 0 973.8 1.1 73
2020-03-21 20:00:00 11.2 7 Nordeste 13 Nordeste 0 973.3 0.2 71
2020-03-21 19:00:00 12.8 7 Nordeste 24 Nordeste 0 972.8 -0.8 66
2020-03-21 18:00:00 13 11 Este 24 Este 0 972.7 -1.3 66
2020-03-21 17:00:00 13 17 Este 32 Este 0 973.1 -1.6 69
2020-03-21 16:00:00 13 16 Este 29 Este 0 973.6 -1.5 73
2020-03-21 15:00:00 11.6 13 Este 31 Este 0 974 -1.3 75
2020-03-21 14:00:00 10.7 15 Este 26 Este 0.2 974.7 -0.8 85
2020-03-21 13:00:00 11.2 9 Sudeste 21 Este 0 975.1 0 86
2020-03-21 12:00:00 9.4 13 Este 23 Este 0.4 975.3 0.7 97
2020-03-21 11:00:00 8.4 13 Este 24 Este 1.6 975.5 1.7 97
2020-03-21 10:00:00 8.5 13 Este 24 Este 0.8 975.1 1.3 97
2020-03-21 09:00:00 8.3 12 Este 20 Este 1.2 974.6 0.4 96
2020-03-21 08:00:00 8.5 11 Este 19 Este 1 973.8 -0.4 95
2020-03-21 07:00:00 8.9 12 Este 18 Este 0.8 973.8 0 98
2020-03-21 06:00:00 9.2 9 Este 14 Este 2.2 974.2 -0.4 98
2020-03-21 05:00:00 9.4 5 Este 13 Norte 0.8 974.2 -0.8 97
2020-03-21 04:00:00 9.4 7 Norte 12 Noroeste 0.6 973.8 -1.2 98
2020-03-21 03:00:00 9.5 6 Noroeste 16 Noroeste 0.6 974.6 -0.2 98
2020-03-21 02:00:00 9.5 13 Oeste 21 Oeste 1.8 975 1.3 98
2020-03-21 01:00:00 9.6 12 Oeste 37 Oeste 5.4 975 0.4 96
2020-03-21 00:00:00 11.1 12 Sudoeste 36 Sudoeste 5.2 974.8 -0.6 97
2020-03-20 23:00:00 11.4 4 Norte 21 Este 0 973.7 -1.8 94
2020-03-20 22:00:00 11.2 9 Este 21 Este 0.8 974.6 -0.9 97
2020-03-20 21:00:00 11.2 12 Este 23 Sudeste 4.8 975.4 -0.1 98
2020-03-20 20:00:00 11.1 3 Noroeste 18 Sudoeste 5.8 975.5 -0.5 98
2020-03-20 19:00:00 11.1 12 Oeste 23 Este 2.2 975.5 -0.9 97
2020-03-20 18:00:00 11.2 14 Este 27 Este 1.6 975.5 -1.6 98
2020-03-20 17:00:00 11.2 15 Este 28 Este 1.4 976 -1.3 98
2020-03-20 16:00:00 11 16 Este 27 Este 1.4 976.4 -2.1 98
2020-03-20 15:00:00 10.8 13 Este 33 Este 2 977.1 -1.3 96
2020-03-20 14:00:00 10.7 22 Este 37 Este 5.8 977.3 -1.2 95
2020-03-20 13:00:00 10.3 7 Norte 24 Nordeste 2.6 978.5 0.5 95
2020-03-20 12:00:00 10.1 13 Nordeste 24 Nordeste 9.4 978.4 1 95
2020-03-20 11:00:00 10 14 Este 29 Este 9 978.5 1.8 97
2020-03-20 10:00:00 10.3 18 Este 28 Sudeste 9.4 978 1.4 96
2020-03-20 09:00:00 10.8 17 Este 43 Este 1.4 977.4 1 90
2020-03-20 08:00:00 11.9 26 Este 48 Este 0 976.7 0.1 78
2020-03-20 07:00:00 11.9 25 Este 40 Este 0 976.6 -0.4 77
2020-03-20 06:00:00 11.9 22 Este 37 Este 0 976.4 -1.1 76
2020-03-20 05:00:00 12.4 23 Este 44 Este 0 976.6 -0.9 73
2020-03-20 04:00:00 12.8 25 Este 39 Este 0 977 -0.7 71
2020-03-20 03:00:00 13.2 22 Este 32 Este 0 977.5 -0.5 70
2020-03-20 02:00:00 13.2 18 Este 38 Este 0 977.5 -0.9 69
2020-03-20 01:00:00 13.4 18 Este 30 Este 0 977.7 -0.8 68
2020-03-20 00:00:00 13.2 14 Este 23 Este 0 978 -0.9 66
2020-03-19 23:00:00 13.6 11 Este 19 Este 0 978.4 -0.4 64
2020-03-19 22:00:00 13.5 10 Este 15 Este 0 978.5 -0.2 66
2020-03-19 21:00:00 13.7 11 Este 16 Este 0 978.9 0.3 65
2020-03-19 20:00:00 13.9 10 Este 23 Este 0 978.8 -0.4 65
2020-03-19 19:00:00 15.1 13 Este 39 Este 0 978.7 -1 59
2020-03-19 18:00:00 16 21 Este 44 Este 0 978.6 -1.7 55
2020-03-19 17:00:00 16.8 26 Este 44 Este 0 979.2 -2 50
2020-03-19 16:00:00 17.2 20 Este 36 Este 0 979.7 -2.4 50
2020-03-19 15:00:00 17.3 22 Este 36 Este 0 980.3 -2.5 52
2020-03-19 14:00:00 16.9 16 Este 32 Este 0 981.2 -2.4 53
2020-03-19 13:00:00 15.8 18 Este 34 Este 0 982.1 -1.2 55
2020-03-19 12:00:00 14.9 22 Este 36 Este 0 982.8 -0.1 59
2020-03-19 11:00:00 13 16 Este 31 Este 0 983.6 0.6 64
2020-03-19 10:00:00 11.7 18 Este 32 Este 0 983.3 0.3 67
2020-03-19 09:00:00 11.1 19 Este 36 Este 0 982.9 -0.1 67
2020-03-19 08:00:00 10.6 15 Este 30 Este 0 983 0.1 66
2020-03-19 07:00:00 11.5 20 Este 32 Este 0 983 0.2 63
2020-03-19 06:00:00 12.1 18 Sudeste 37 Este 0 983 0.1 65
2020-03-19 05:00:00 13.3 23 Este 39 Este 0 982.9 -0.3 59
2020-03-19 04:00:00 14 17 Este 36 Este 0 982.8 -0.8 55
2020-03-19 03:00:00 14.4 17 Este 35 Este 0 982.9 -1.3 55
2020-03-19 02:00:00 15.1 24 Este 46 Este 0 983.2 -1.2 58
2020-03-19 01:00:00 14.8 19 Este 33 Este 0 983.6 -0.8 64
2020-03-19 00:00:00 14.7 16 Este 32 Este 0 984.2 0.1 63
2020-03-18 23:00:00 15.4 14 Este 26 Este 0 984.4 0.4 57
2020-03-18 22:00:00 15.2 9 Este 28 Este 0 984.4 0.5 61
2020-03-18 21:00:00 15.3 14 Este 24 Este 0 984.1 0.1 61
2020-03-18 20:00:00 15.3 7 Este 30 Este 0 984 0.1 61
2020-03-18 19:00:00 15.9 19 Este 33 Este 0 983.9 0 57
2020-03-18 18:00:00 16.9 15 Este 35 Este 0 984 0 53
2020-03-18 17:00:00 17.3 16 Este 39 Este 0 983.9 -0.8 52
2020-03-18 16:00:00 17.2 28 Este 51 Este 0 983.9 -1.5 51
2020-03-18 15:00:00 18.2 28 Este 50 Este 0 984 -2.3 49
2020-03-18 14:00:00 18.7 35 Este 57 Este 0 984.7 -1.8 43
2020-03-18 13:00:00 18.7 34 Este 59 Este 0 985.4 -1 45
2020-03-18 12:00:00 17.8 21 Este 51 Este 0 986.3 0.2 49
2020-03-18 11:00:00 16.3 32 Este 62 Este 0 986.5 0.5 53
2020-03-18 10:00:00 15.1 31 Este 46 Este 0 986.4 0.4 61
2020-03-18 09:00:00 13.2 19 Este 36 Este 0 986.1 0.3 69
2020-03-18 08:00:00 12.1 15 Este 33 Este 0 986 -0.1 73
2020-03-18 07:00:00 12.6 19 Este 49 Este 0 986 0.2 72
2020-03-18 06:00:00 12.9 24 Este 58 Este 0 985.8 0 71
2020-03-18 05:00:00 13.1 15 Este 44 Este 0 986.1 0.4 73
2020-03-18 04:00:00 13.4 12 Este 44 Este 0 985.8 0 66
2020-03-18 03:00:00 14.1 15 Nordeste 32 Este 0 985.8 -0.6 62
2020-03-18 02:00:00 14.7 14 Este 39 Este 0 985.7 -1 62
2020-03-18 01:00:00 14.5 20 Este 35 Este 0 985.8 -0.9 65
2020-03-18 00:00:00 14 10 Este 27 Este 0 986.4 0.2 70
2020-03-17 23:00:00 14.6 15 Este 28 Este 0 986.7 1.2 64
2020-03-17 22:00:00 15.5 14 Nordeste 28 Nordeste 0 986.7 1.6 53
2020-03-17 21:00:00 15 15 Norte 28 Norte 0 986.2 1.4 50
2020-03-17 20:00:00 15.2 13 Norte 21 Este 0 985.5 0.6 61
2020-03-17 19:00:00 16.2 11 Este 31 Este 0 985.1 0.4 53
2020-03-17 18:00:00 16.8 15 Este 38 Este 0 984.8 0.2 48
2020-03-17 17:00:00 16.8 18 Este 51 Este 0 984.9 -0.4 48
2020-03-17 16:00:00 15.7 21 Este 46 Este 0 984.7 -0.8 51
2020-03-17 15:00:00 16.2 29 Este 49 Sudeste 0 984.6 -1.3 50
2020-03-17 14:00:00 15 22 Este 50 Este 0 985.3 -0.5 57
2020-03-17 13:00:00 14.5 19 Este 44 Este 0 985.5 -0.1 63
2020-03-17 12:00:00 13.1 21 Este 37 Este 0 985.9 1 65
2020-03-17 11:00:00 11.1 15 Este 27 Este 0 985.8 1.7 64
2020-03-17 10:00:00 9.6 8 Sudeste 15 Sudeste 0 985.6 2.3 74
2020-03-17 09:00:00 6 2 Nordeste 19 Nordeste 0 984.9 2.3 80
2020-03-17 08:00:00 4.5 9 Este 22 Nordeste 0 984.1 1.8 80
2020-03-17 07:00:00 4.2 10 Nordeste 16 Este 0 983.3 1.5 89
2020-03-17 06:00:00 3.8 8 Este 15 Este 0 982.6 0.4 91
2020-03-17 05:00:00 3.5 6 Este 24 Nordeste 0 982.3 0.5 91
2020-03-17 04:00:00 6.6 14 Nordeste 28 Nordeste 0 981.8 0.4 73
2020-03-17 03:00:00 5.2 10 Nordeste 20 Nordeste 0 982.2 0.8 86
2020-03-17 02:00:00 5.1 8 Nordeste 24 Nordeste 0 981.8 0.7 90
2020-03-17 01:00:00 6.7 17 Nordeste 32 Norte 0 981.4 0.7 82
2020-03-17 00:00:00 6.7 16 Nordeste 28 Nordeste 0.8 981.4 1 89
2020-03-16 23:00:00 7 11 Nordeste 22 Este 1.2 981.1 1.3 89
2020-03-16 22:00:00 6.9 8 Nordeste 22 Nordeste 0.2 980.7 1.4 88
2020-03-16 21:00:00 7.3 13 Nordeste 26 Nordeste 1 980.4 1.6 84
2020-03-16 20:00:00 7.6 8 Norte 27 Norte 0.4 979.8 0.8 82
2020-03-16 19:00:00 8.1 20 Norte 40 Norte 0.4 979.3 0.4 78
2020-03-16 18:00:00 8.6 6 Norte 29 Norte 0 978.8 -0.2 73
2020-03-16 17:00:00 9.3 15 Norte 39 Norte 0 979 -0.3 67
2020-03-16 16:00:00 9.4 12 Norte 30 Noroeste 0 978.9 0.1 61
2020-03-16 15:00:00 9.4 15 Norte 40 Norte 0 979 0.1 62
2020-03-16 14:00:00 9.6 18 Norte 44 Norte 0 979.3 0.4 60
2020-03-16 13:00:00 10.3 19 Norte 43 Norte 0 978.8 0.2 50
2020-03-16 12:00:00 10 20 Norte 41 Nordeste 0 978.9 0.9 51
2020-03-16 11:00:00 9.1 14 Noroeste 41 Noroeste 0 978.9 1.4 58
2020-03-16 10:00:00 7.6 25 Noroeste 46 Noroeste 0 978.6 1.6 65
2020-03-16 09:00:00 6.9 27 Noroeste 45 Noroeste 0 978 1 64
2020-03-16 08:00:00 6.3 21 Noroeste 45 Noroeste 0 977.5 0.4 66
2020-03-16 07:00:00 6.3 22 Noroeste 41 Noroeste 0 977 -0.2 65
2020-03-16 06:00:00 5.9 19 Noroeste 38 Noroeste 0 977 -0.7 66
2020-03-16 05:00:00 6.6 21 Noroeste 42 Noroeste 0 977.1 -0.7 61
2020-03-16 04:00:00 5.9 18 Noroeste 33 Noroeste 0 977.2 -0.7 64
2020-03-16 03:00:00 6.2 14 Noroeste 42 Noroeste 0 977.7 -0.7 63
2020-03-16 02:00:00 6.7 22 Noroeste 37 Oeste 0 977.8 0.2 61
2020-03-16 01:00:00 6.6 20 Noroeste 42 Noroeste 0 977.9 0.8 63
2020-03-16 00:00:00 7.3 16 Noroeste 50 Noroeste 0 978.4 2.4 63
2020-03-15 23:00:00 8.5 20 Noroeste 46 Noroeste 0 977.6 2.6 60
2020-03-15 22:00:00 9.8 17 Noroeste 48 Noroeste 0 977.1 2.3 59
2020-03-15 21:00:00 11 20 Oeste 51 Oeste 0 976 1.3 68
2020-03-15 20:00:00 12.5 22 Oeste 36 Oeste 0 975 0.2 60
2020-03-15 19:00:00 15.3 23 Oeste 44 Oeste 0 974.8 -0.2 49
2020-03-15 18:00:00 17.4 30 Oeste 50 Oeste 0 974.7 -0.8 41
2020-03-15 17:00:00 18.9 31 Oeste 51 Oeste 0 974.8 -1.4 50
2020-03-15 16:00:00 20.1 30 Oeste 50 Oeste 0 975 -2 56
2020-03-15 15:00:00 21.7 26 Sudoeste 46 Sudoeste 0 975.5 -2.6 47
2020-03-15 14:00:00 21.7 18 Sudoeste 32 Sudoeste 0 976.2 -2.6 50
2020-03-15 13:00:00 20 9 Sudoeste 19 Sudoeste 0 977 -1.9 55
2020-03-15 12:00:00 17.6 6 Oeste 16 Sudoeste 0 978.1 -0.6 60
2020-03-15 11:00:00 15.9 6 Este 12 Este 0 978.8 0.5 59
2020-03-15 10:00:00 12.5 3 Sudeste 9 Sur 0 978.9 0.7 67
2020-03-15 09:00:00 9.7 5 Sudeste 9 Este 0 978.7 0.3 81
2020-03-15 08:00:00 6.8 5 Este 8 Este 0 978.3 0 84
2020-03-15 07:00:00 8.6 4 Este 9 Este 0 978.2 -0.7 78
2020-03-15 06:00:00 8.7 4 Nordeste 10 Sur 0 978.4 -0.9 80
2020-03-15 05:00:00 10.9 3 Sudeste 7 Nordeste 0 978.3 -1.3 69
2020-03-15 04:00:00 10.5 4 Oeste 8 Noroeste 0 978.9 -1 68
2020-03-15 03:00:00 11 4 Sudoeste 12 Este 0 979.3 -0.9 70
2020-03-15 02:00:00 13.2 6 Este 8 Este 0 979.6 -0.7 60
2020-03-15 01:00:00 13.6 4 Nordeste 6 Sudeste 0 979.9 -0.4 52
2020-03-15 00:00:00 14.9 0 Calma 21 Este 0 980.2 0 48
2020-03-14 23:00:00 16.2 4 Este 20 Norte 0 980.3 0.3 46
2020-03-14 22:00:00 17.7 10 Norte 18 Nordeste 0 980.3 0.5 45
2020-03-14 21:00:00 19.1 7 Noroeste 11 Noroeste 0 980.2 0.3 42
2020-03-14 20:00:00 20.6 4 Noroeste 8 Oeste 0 980 0 35
2020-03-14 19:00:00 23.1 6 Oeste 10 Oeste 0 979.8 -0.7 37
2020-03-14 18:00:00 24.6 6 Oeste 11 Sudeste 0 979.9 -1.3 32
2020-03-14 17:00:00 24 6 Sudeste 14 Sudeste 0 980 -2 32
2020-03-14 16:00:00 24.2 5 Sudeste 16 Este 0 980.5 -2.1 34
2020-03-14 15:00:00 23.7 4 Este 18 Este 0 981.2 -1.7 39
2020-03-14 14:00:00 21.7 8 Nordeste 20 Este 0 982 -1.3 47
2020-03-14 13:00:00 21.5 11 Este 26 Sudeste 0 982.6 -0.4 49
2020-03-14 12:00:00 20.5 9 Sudeste 18 Este 0 982.9 0.3 49
2020-03-14 11:00:00 17.5 3 Sur 8 Oeste 0 983.3 1.1 61
2020-03-14 10:00:00 15.3 4 Sur 7 Sur 0 983 1.3 63
2020-03-14 09:00:00 13.4 3 Este 9 Noroeste 0 982.6 1.1 71
2020-03-14 08:00:00 10.9 2 Nordeste 9 Nordeste 0 982.2 1.1 69
2020-03-14 07:00:00 13.2 8 Norte 19 Norte 0 981.7 0.4 60
2020-03-14 06:00:00 11.3 5 Noroeste 17 Norte 0 981.5 0 67
2020-03-14 05:00:00 14.1 11 Norte 17 Norte 0 981.1 -0.5 57
2020-03-14 04:00:00 13.6 6 Norte 13 Norte 0 981.3 -0.7 59
2020-03-14 03:00:00 13.7 4 Nordeste 15 Nordeste 0 981.5 -0.4 64
2020-03-14 02:00:00 13.2 6 Este 17 Norte 0 981.6 -0.1 70
2020-03-14 01:00:00 15.1 9 Norte 27 Norte 0 982 0.8 63
2020-03-14 00:00:00 14.9 14 Norte 23 Norte 0 981.9 1.2 67
2020-03-13 23:00:00 15.2 13 Norte 22 Norte 0 981.7 1.4 68
2020-03-13 22:00:00 15.8 11 Norte 22 Norte 0 981.2 1.4 68
2020-03-13 21:00:00 17 12 Norte 22 Norte 0 980.7 1.2 63
2020-03-13 20:00:00 17.8 10 Norte 22 Noroeste 0 980.3 1 62
2020-03-13 19:00:00 19.3 14 Noroeste 27 Noroeste 0 979.8 0.4 58
2020-03-13 18:00:00 20.3 16 Noroeste 29 Noroeste 0 979.5 -0.3 55
2020-03-13 17:00:00 21.7 13 Noroeste 23 Noroeste 0 979.3 -1.2 50
2020-03-13 16:00:00 22.5 12 Oeste 25 Oeste 0 979.4 -1.7 51
2020-03-13 15:00:00 21.8 6 Noroeste 21 Oeste 0 979.8 -1.4 48
2020-03-13 14:00:00 20.6 5 Norte 18 Noroeste 0 980.5 -0.9 53
2020-03-13 13:00:00 19.7 5 Sudoeste 12 Sudeste 0 981.1 -0.2 59
2020-03-13 12:00:00 18.4 3 Sudeste 20 Norte 0 981.2 0.4 66
2020-03-13 11:00:00 16.6 8 Noroeste 14 Oeste 0 981.4 1 68
2020-03-13 10:00:00 13.6 5 Sudeste 11 Norte 0 981.3 1.5 88
2020-03-13 09:00:00 11.6 2 Sur 6 Sur 0 980.8 1.6 95
2020-03-13 08:00:00 10.3 3 Sudoeste 6 Este 0 980.4 1.2 94
2020-03-13 07:00:00 11 2 Oeste 9 Noroeste 0 979.8 0.5 91
2020-03-13 06:00:00 11.7 3 Sudoeste 9 Noroeste 0 979.2 -0.5 89
2020-03-13 05:00:00 11.5 5 Oeste 9 Oeste 0 979.2 -0.7 90
2020-03-13 04:00:00 13 3 Sudeste 8 Noroeste 0 979.3 -0.7 81
2020-03-13 03:00:00 14.5 5 Noroeste 13 Noroeste 0 979.7 -0.8 76
2020-03-13 02:00:00 14.4 6 Noroeste 13 Noroeste 0 979.9 -0.6 79
2020-03-13 01:00:00 15.3 12 Noroeste 17 Noroeste 0 980 -0.2 74
2020-03-13 00:00:00 16.2 8 Noroeste 10 Noroeste 0 980.5 0.6 71
2020-03-12 23:00:00 16.2 3 Noroeste 9 Oeste 0 980.5 1 72
2020-03-12 22:00:00 17.4 6 Noroeste 9 Oeste 0 980.2 0.7 69
2020-03-12 21:00:00 19.7 6 Oeste 13 Noroeste 0 979.9 0.4 55
2020-03-12 20:00:00 20.8 6 Noroeste 9 Noroeste 0 979.5 -0.1 50
2020-03-12 19:00:00 22.9 2 Oeste 6 Oeste 0 979.5 -0.4 46
2020-03-12 18:00:00 23.2 4 Oeste 9 Oeste 0 979.5 -1 44
2020-03-12 17:00:00 24 5 Oeste 11 Oeste 0 979.6 -1.7 42
2020-03-12 16:00:00 24.5 7 Oeste 12 Oeste 0 979.9 -2.2 39
2020-03-12 15:00:00 24.2 4 Oeste 9 Oeste 0 980.5 -2.1 38
2020-03-12 14:00:00 23.1 4 Sudoeste 11 Este 0 981.3 -1.5 49
2020-03-12 13:00:00 22.2 3 Sudeste 11 Sudeste 0 982.1 -0.6 51
2020-03-12 12:00:00 21 4 Sudeste 13 Sudeste 0 982.6 0.1 57
2020-03-12 11:00:00 18.9 5 Este 15 Este 0 982.8 0.6 65
2020-03-12 10:00:00 16.5 8 Este 13 Este 0 982.7 1 73
2020-03-12 09:00:00 12.9 5 Nordeste 13 Este 0 982.5 0.8 90
2020-03-12 08:00:00 10.8 6 Noroeste 9 Este 0 982.2 0.4 94
2020-03-12 07:00:00 12.1 8 Este 17 Este 0 981.7 -0.6 90
2020-03-12 06:00:00 11.8 2 Este 8 Este 0 981.7 -1.2 92
2020-03-12 05:00:00 12.6 2 Este 4 Este 0 981.8 -1.4 91
2020-03-12 04:00:00 13 3 Noroeste 6 Este 0 982.3 -1.3 88
2020-03-12 03:00:00 14.3 3 Oeste 4 Este 0 982.9 -1 80
2020-03-12 02:00:00 15.2 2 Sudeste 5 Nordeste 0 983.2 -0.8 79
2020-03-12 01:00:00 15.7 0 Calma 8 Este 0 983.6 -0.2 76
2020-03-12 00:00:00 17.3 7 Nordeste 11 Este 0 983.9 0.2 66
2020-03-11 23:00:00 17.3 3 Sur 6 Sur 0 984 0 72
2020-03-11 22:00:00 17.8 4 Noroeste 7 Este 0 983.8 -0.4 69
2020-03-11 21:00:00 19.1 6 Este 12 Norte 0 983.7 -0.5 61
2020-03-11 20:00:00 21.4 7 Norte 13 Norte 0 984 -0.5 53
2020-03-11 19:00:00 21.8 7 Norte 13 Norte 0 984.2 -0.7 53
2020-03-11 18:00:00 22.8 4 Norte 8 Norte 0 984.2 -1.3 51
2020-03-11 17:00:00 23.3 2 Oeste 8 Noroeste 0 984.5 -1.7 50
2020-03-11 16:00:00 23.8 5 Oeste 12 Sudoeste 0 984.9 -2 46
2020-03-11 15:00:00 24.7 5 Sudoeste 11 Sudoeste 0 985.5 -2.1 43
2020-03-11 14:00:00 23.4 6 Sudeste 15 Sudeste 0 986.2 -1.7 49
2020-03-11 13:00:00 21.7 8 Este 14 Sudeste 0 986.9 -0.7 53
2020-03-11 12:00:00 19.5 8 Sudeste 17 Sudeste 0 987.6 0.4 58
2020-03-11 11:00:00 17 7 Este 15 Este 0 987.9 0.9 65
2020-03-11 10:00:00 13.3 2 Sudoeste 5 Oeste 0 987.6 0.8 85
2020-03-11 09:00:00 10.9 0 Calma 4 Sur 0 987.2 0.6 90
2020-03-11 08:00:00 8.9 2 Norte 4 Este 0 987 0.5 92
2020-03-11 07:00:00 8.7 2 Noroeste 4 Oeste 0 986.8 -0.2 91
2020-03-11 06:00:00 9 0 Calma 4 Sudeste 0 986.6 -0.9 87
2020-03-11 05:00:00 10.1 0 Calma 6 Este 0 986.5 -1.3 83
2020-03-11 04:00:00 11.1 3 Este 6 Este 0 987 -1.3 80
2020-03-11 03:00:00 11.7 4 Este 5 Este 0 987.5 -1 77
2020-03-11 02:00:00 12.8 0 Calma 5 Noroeste 0 987.8 -0.9 72
2020-03-11 01:00:00 13.1 2 Oeste 5 Sudeste 0 988.3 -0.1 71
2020-03-11 00:00:00 14.7 5 Este 8 Este 0 988.5 0.4 64